createdAt,value
2023-05-14T00:01:08.048Z,10.85
2023-05-14T00:04:11.170Z,10.83
2023-05-14T00:07:13.770Z,10.81
2023-05-14T00:10:19.068Z,10.83
2023-05-14T00:13:21.582Z,10.81
2023-05-14T00:16:24.439Z,10.82
2023-05-14T00:19:29.446Z,10.82
2023-05-14T00:22:32.266Z,10.81
2023-05-14T00:25:34.862Z,10.83
2023-05-14T00:28:37.670Z,10.86
2023-05-14T00:31:40.370Z,10.84
2023-05-14T00:34:43.329Z,10.93
2023-05-14T00:37:45.943Z,10.91
2023-05-14T00:40:51.862Z,10.94
2023-05-14T00:43:54.563Z,11.02
2023-05-14T00:46:58.052Z,11.07
2023-05-14T00:50:01.582Z,11.06
2023-05-14T00:53:10.198Z,11.08
2023-05-14T00:56:14.403Z,11.12
2023-05-14T00:59:17.442Z,11.13
2023-05-14T01:02:20.191Z,11.14
2023-05-14T01:05:29.617Z,11.14
2023-05-14T01:09:00.988Z,11.16
2023-05-14T01:12:17.312Z,11.20
2023-05-14T01:15:23.881Z,11.25
2023-05-14T01:18:28.582Z,11.20
2023-05-14T01:21:38.681Z,11.25
2023-05-14T01:24:41.554Z,11.32
2023-05-14T01:27:53.776Z,11.34
2023-05-14T01:31:04.824Z,11.36
2023-05-14T01:34:09.431Z,11.33
2023-05-14T01:37:13.725Z,11.20
2023-05-14T01:40:16.653Z,11.09
2023-05-14T01:43:20.851Z,11.06
2023-05-14T01:46:25.219Z,11.20
2023-05-14T01:49:28.348Z,11.11
2023-05-14T01:52:30.954Z,11.06
2023-05-14T01:55:33.899Z,10.96
2023-05-14T01:58:36.549Z,10.92
2023-05-14T02:01:39.455Z,10.79
2023-05-14T02:04:42.236Z,10.82
2023-05-14T02:07:44.962Z,10.78
2023-05-14T02:10:47.916Z,10.83
2023-05-14T02:13:50.746Z,10.74
2023-05-14T02:16:53.310Z,10.79
2023-05-14T02:19:56.057Z,10.85
2023-05-14T02:22:58.624Z,10.90
2023-05-14T02:26:01.994Z,11.00
2023-05-14T02:29:04.621Z,11.02
2023-05-14T02:32:07.726Z,11.09
2023-05-14T02:35:10.491Z,11.01
2023-05-14T02:38:13.414Z,10.95
2023-05-14T02:41:16.038Z,11.02
2023-05-14T02:44:18.877Z,10.98
2023-05-14T02:47:21.576Z,10.99
2023-05-14T02:50:24.676Z,10.94
2023-05-14T02:53:27.545Z,10.97
2023-05-14T02:56:30.565Z,11.05
2023-05-14T02:59:33.244Z,10.95
2023-05-14T03:02:36.839Z,10.94
2023-05-14T03:05:39.666Z,10.94
2023-05-14T03:08:42.517Z,10.97
2023-05-14T03:11:45.106Z,11.05
2023-05-14T03:14:48.025Z,11.08
2023-05-14T03:17:50.677Z,11.12
2023-05-14T03:20:53.634Z,11.13
2023-05-14T03:23:57.652Z,11.13
2023-05-14T03:27:00.710Z,11.20
2023-05-14T03:30:03.562Z,11.19
2023-05-14T03:33:06.912Z,11.22
2023-05-14T03:36:09.564Z,11.26
2023-05-14T03:39:15.453Z,11.27
2023-05-14T03:42:18.010Z,11.36
2023-05-14T03:45:20.974Z,11.38
2023-05-14T03:48:23.654Z,11.41
2023-05-14T03:51:26.575Z,11.47
2023-05-14T03:54:29.161Z,11.45
2023-05-14T03:57:32.009Z,11.48
2023-05-14T04:00:34.592Z,11.49
2023-05-14T04:03:37.791Z,11.53
2023-05-14T04:06:40.566Z,11.56
2023-05-14T04:09:43.385Z,11.63
2023-05-14T04:12:45.955Z,11.63
2023-05-14T04:15:48.881Z,11.65
2023-05-14T04:18:51.511Z,11.71
2023-05-14T04:21:54.317Z,11.80
2023-05-14T04:24:57.079Z,11.76
2023-05-14T04:28:00.168Z,11.78
2023-05-14T04:31:02.836Z,11.80
2023-05-14T04:34:05.730Z,11.86
2023-05-14T04:37:08.295Z,11.92
2023-05-14T04:40:11.449Z,12.06
2023-05-14T04:43:14.066Z,12.01
2023-05-14T04:46:16.998Z,12.00
2023-05-14T04:49:20.912Z,11.95
2023-05-14T04:52:24.663Z,11.96
2023-05-14T04:55:27.384Z,11.96
2023-05-14T04:58:34.497Z,11.90
2023-05-14T05:01:37.738Z,11.97
2023-05-14T05:04:40.671Z,11.96
2023-05-14T05:07:43.233Z,11.95
2023-05-14T05:10:46.090Z,12.01
2023-05-14T05:13:48.711Z,12.05
2023-05-14T05:16:51.640Z,12.02
2023-05-14T05:19:54.250Z,11.96
2023-05-14T05:22:57.099Z,11.83
2023-05-14T05:25:59.649Z,11.81
2023-05-14T05:29:04.195Z,11.78
2023-05-14T05:32:07.555Z,11.85
2023-05-14T05:35:10.431Z,11.91
2023-05-14T05:38:12.999Z,11.96
2023-05-14T05:41:15.894Z,12.00
2023-05-14T05:44:18.785Z,12.00
2023-05-14T05:47:21.712Z,12.03
2023-05-14T05:50:24.766Z,12.01
2023-05-14T05:53:27.946Z,12.00
2023-05-14T05:56:30.811Z,11.95
2023-05-14T05:59:33.741Z,11.96
2023-05-14T06:02:36.379Z,12.03
2023-05-14T06:05:39.664Z,12.07
2023-05-14T06:08:42.308Z,12.12
2023-05-14T06:11:45.132Z,12.17
2023-05-14T06:14:48.062Z,12.17
2023-05-14T06:17:50.993Z,12.21
2023-05-14T06:20:53.691Z,12.16
2023-05-14T06:23:56.458Z,12.19
2023-05-14T06:26:59.042Z,12.04
2023-05-14T06:30:01.999Z,12.01
2023-05-14T06:33:04.849Z,12.01
2023-05-14T06:36:08.294Z,12.01
2023-05-14T06:39:10.983Z,12.00
2023-05-14T06:42:13.843Z,11.97
2023-05-14T06:45:16.595Z,11.86
2023-05-14T06:48:20.054Z,11.79
2023-05-14T06:51:22.700Z,11.80
2023-05-14T06:54:25.640Z,11.86
2023-05-14T06:57:28.192Z,11.92
2023-05-14T07:00:31.097Z,11.97
2023-05-14T07:03:33.682Z,12.03
2023-05-14T07:06:36.575Z,12.07
2023-05-14T07:09:39.118Z,12.16
2023-05-14T07:12:42.038Z,12.27
2023-05-14T07:15:44.537Z,12.40
2023-05-14T07:18:47.462Z,12.64
2023-05-14T07:21:50.044Z,12.81
2023-05-14T07:24:52.951Z,13.03
2023-05-14T07:27:55.863Z,13.24
2023-05-14T07:30:58.847Z,13.36
2023-05-14T07:34:01.367Z,13.56
2023-05-14T07:37:04.479Z,13.80
2023-05-14T07:40:07.662Z,13.88
2023-05-14T07:43:11.049Z,14.20
2023-05-14T07:46:14.848Z,14.35
2023-05-14T07:49:17.772Z,14.36
2023-05-14T07:52:20.477Z,14.37
2023-05-14T07:55:23.480Z,14.34
2023-05-14T07:58:27.877Z,14.29
2023-05-14T08:01:31.703Z,14.40
2023-05-14T08:04:36.153Z,14.54
2023-05-14T08:07:38.918Z,14.74
2023-05-14T08:10:41.853Z,14.52
2023-05-14T08:13:44.573Z,14.48
2023-05-14T08:16:47.867Z,14.36
2023-05-14T08:19:50.812Z,14.34
2023-05-14T08:22:53.674Z,14.39
2023-05-14T08:25:56.302Z,14.19
2023-05-14T08:28:59.251Z,13.92
2023-05-14T08:32:11.663Z,13.70
2023-05-14T08:35:19.153Z,13.63
2023-05-14T08:38:21.764Z,13.57
2023-05-14T08:41:25.495Z,13.61
2023-05-14T08:44:50.322Z,13.58
2023-05-14T08:47:53.922Z,13.35
2023-05-14T08:50:57.263Z,13.32
2023-05-14T08:54:02.942Z,13.37
2023-05-14T08:57:06.323Z,13.41
2023-05-14T09:00:12.635Z,13.45
2023-05-14T09:03:15.946Z,13.51
2023-05-14T09:06:19.286Z,13.48
2023-05-14T09:09:22.683Z,13.51
2023-05-14T09:12:26.308Z,13.47
2023-05-14T09:15:29.811Z,13.45
2023-05-14T09:18:32.869Z,13.54
2023-05-14T09:21:35.758Z,13.52
2023-05-14T09:24:39.030Z,13.63
2023-05-14T09:27:41.767Z,13.70
2023-05-14T09:30:52.238Z,13.68
2023-05-14T09:33:54.798Z,13.74
2023-05-14T09:36:59.706Z,13.63
2023-05-14T09:40:10.123Z,13.63
2023-05-14T09:43:13.970Z,13.62
2023-05-14T09:46:16.615Z,13.63
2023-05-14T09:49:19.881Z,13.67
2023-05-14T09:52:24.728Z,13.68
2023-05-14T09:55:27.917Z,13.60
2023-05-14T09:58:30.621Z,13.57
2023-05-14T10:01:34.019Z,13.59
2023-05-14T10:04:37.473Z,13.60
2023-05-14T10:07:44.623Z,13.56
2023-05-14T10:10:51.175Z,13.42
2023-05-14T10:14:07.527Z,13.33
2023-05-14T10:17:18.564Z,13.38
2023-05-14T10:20:23.474Z,13.31
2023-05-14T10:23:27.282Z,13.19
2023-05-14T10:26:30.700Z,13.24
2023-05-14T10:29:37.982Z,13.35
2023-05-14T10:32:42.089Z,13.44
2023-05-14T10:35:56.818Z,13.52
2023-05-14T10:39:04.412Z,13.55
2023-05-14T10:42:10.773Z,13.40
2023-05-14T10:45:15.102Z,13.14
2023-05-14T10:48:19.674Z,13.00
2023-05-14T10:51:23.113Z,12.93
2023-05-14T10:54:28.673Z,13.02
2023-05-14T10:57:32.448Z,13.06
2023-05-14T11:00:35.728Z,13.07
2023-05-14T11:03:46.753Z,13.19
2023-05-14T11:06:53.535Z,13.34
2023-05-14T11:10:17.824Z,13.50
2023-05-14T11:13:21.558Z,13.56
2023-05-14T11:16:26.427Z,13.47
2023-05-14T11:19:29.398Z,13.35
2023-05-14T11:22:32.378Z,13.29
2023-05-14T11:25:35.409Z,13.36
2023-05-14T11:28:39.143Z,13.43
2023-05-14T11:31:42.428Z,13.19
2023-05-14T11:34:46.080Z,13.09
2023-05-14T11:37:52.737Z,13.12
2023-05-14T11:40:56.850Z,13.07
2023-05-14T11:43:59.871Z,12.96
2023-05-14T11:47:04.965Z,12.99
2023-05-14T11:50:09.675Z,12.96
2023-05-14T11:53:19.255Z,13.01
2023-05-14T11:56:22.652Z,13.01
2023-05-14T11:59:27.696Z,12.92
2023-05-14T12:02:31.701Z,12.87
2023-05-14T12:05:39.254Z,12.81
2023-05-14T12:08:41.845Z,12.69
2023-05-14T12:11:46.508Z,12.66
2023-05-14T12:14:50.288Z,12.51
2023-05-14T12:17:53.350Z,12.46
2023-05-14T12:20:56.823Z,12.41
2023-05-14T12:24:00.227Z,12.37
2023-05-14T12:27:03.426Z,12.32
2023-05-14T12:30:20.586Z,12.37
2023-05-14T12:33:24.308Z,12.27
2023-05-14T12:36:27.173Z,12.07
2023-05-14T12:39:32.415Z,12.09
2023-05-14T12:42:35.507Z,11.97
2023-05-14T12:45:38.113Z,12.01
2023-05-14T12:48:41.016Z,12.06
2023-05-14T12:51:43.603Z,12.14
2023-05-14T12:54:46.618Z,12.15
2023-05-14T12:57:49.286Z,12.12
2023-05-14T13:00:52.242Z,12.10
2023-05-14T13:03:55.616Z,12.06
2023-05-14T13:06:58.594Z,12.06
2023-05-14T13:10:01.286Z,12.02
2023-05-14T13:13:04.321Z,11.95
2023-05-14T13:16:07.324Z,12.01
2023-05-14T13:19:10.239Z,12.09
2023-05-14T13:22:12.978Z,12.04
2023-05-14T13:25:16.121Z,11.94
2023-05-14T13:28:18.754Z,11.99
2023-05-14T13:31:21.628Z,11.98
2023-05-14T13:34:24.319Z,12.05
2023-05-14T13:37:27.221Z,12.08
2023-05-14T13:40:29.805Z,12.13
2023-05-14T13:43:34.010Z,12.17
2023-05-14T13:46:36.920Z,12.10
2023-05-14T13:49:40.729Z,12.03
2023-05-14T13:52:43.359Z,12.05
2023-05-14T13:55:47.888Z,12.08
2023-05-14T13:58:52.893Z,12.09
2023-05-14T14:01:55.800Z,12.11
2023-05-14T14:04:58.854Z,12.04
2023-05-14T14:08:17.759Z,12.04
2023-05-14T14:11:24.368Z,12.10
2023-05-14T14:14:27.984Z,12.00
2023-05-14T14:17:30.927Z,11.97
2023-05-14T14:20:33.591Z,12.00
2023-05-14T14:23:36.521Z,12.04
2023-05-14T14:26:39.064Z,12.01
2023-05-14T14:29:41.948Z,11.96
2023-05-14T14:32:48.279Z,12.01
2023-05-14T14:35:51.836Z,12.09
2023-05-14T14:38:54.384Z,12.06
2023-05-14T14:41:57.463Z,12.01
2023-05-14T14:45:00.036Z,12.02
2023-05-14T14:48:33.900Z,12.14
2023-05-14T14:51:36.614Z,12.14
2023-05-14T14:54:39.686Z,12.17
2023-05-14T14:57:42.336Z,12.14
2023-05-14T15:00:45.799Z,12.10
2023-05-14T15:03:48.916Z,12.17
2023-05-14T15:06:51.877Z,12.12
2023-05-14T15:09:54.434Z,12.10
2023-05-14T15:12:59.055Z,12.08
2023-05-14T15:16:02.174Z,12.04
2023-05-14T15:19:05.119Z,11.93
2023-05-14T15:22:07.760Z,11.85
2023-05-14T15:25:10.968Z,11.86
2023-05-14T15:28:14.001Z,11.76
2023-05-14T15:31:16.999Z,11.69
2023-05-14T15:34:19.723Z,11.61
2023-05-14T15:37:24.734Z,11.59
2023-05-14T15:40:27.908Z,11.57
2023-05-14T15:43:30.835Z,11.50
2023-05-14T15:46:33.534Z,11.46
2023-05-14T15:49:36.543Z,11.45
2023-05-14T15:52:40.099Z,11.39
2023-05-14T15:55:43.161Z,11.49
2023-05-14T15:58:45.730Z,11.48
2023-05-14T16:01:50.230Z,11.47
2023-05-14T16:04:53.173Z,11.41
2023-05-14T16:07:55.786Z,11.42
2023-05-14T16:10:58.626Z,11.45
2023-05-14T16:14:01.139Z,11.45
2023-05-14T16:17:04.190Z,11.46
2023-05-14T16:20:07.360Z,11.45
2023-05-14T16:23:10.312Z,11.45
2023-05-14T16:26:12.993Z,11.47
2023-05-14T16:29:15.989Z,11.49
2023-05-14T16:32:19.121Z,11.41
2023-05-14T16:35:22.125Z,11.44
2023-05-14T16:38:24.981Z,11.41
2023-05-14T16:41:28.501Z,11.46
2023-05-14T16:44:31.532Z,11.46
2023-05-14T16:47:34.568Z,11.49
2023-05-14T16:50:37.247Z,11.50
2023-05-14T16:53:40.177Z,11.46
2023-05-14T16:56:42.856Z,11.48
2023-05-14T16:59:46.454Z,11.54
2023-05-14T17:02:49.935Z,11.52
2023-05-14T17:05:53.038Z,11.53
2023-05-14T17:08:55.886Z,11.60
2023-05-14T17:11:58.870Z,11.54
2023-05-14T17:15:03.703Z,11.55
2023-05-14T17:18:08.564Z,11.55
2023-05-14T17:21:11.259Z,11.55
2023-05-14T17:24:14.148Z,11.53
2023-05-14T17:27:16.940Z,11.55
2023-05-14T17:30:19.822Z,11.56
2023-05-14T17:33:22.513Z,11.58
2023-05-14T17:36:26.454Z,11.52
2023-05-14T17:39:29.210Z,11.55
2023-05-14T17:42:32.027Z,11.60
2023-05-14T17:45:46.469Z,11.53
2023-05-14T17:48:56.490Z,11.50
2023-05-14T17:51:59.149Z,11.50
2023-05-14T17:55:02.109Z,11.49
2023-05-14T17:58:04.787Z,11.45
2023-05-14T18:01:08.104Z,11.47
2023-05-14T18:04:11.366Z,11.50
2023-05-14T18:07:14.077Z,11.52
2023-05-14T18:10:17.328Z,11.50
2023-05-14T18:13:20.407Z,11.47
2023-05-14T18:16:23.352Z,11.46
2023-05-14T18:19:25.976Z,11.48
2023-05-14T18:22:29.169Z,11.54
2023-05-14T18:25:32.124Z,11.51
2023-05-14T18:28:37.207Z,11.57
2023-05-14T18:31:40.308Z,11.54
2023-05-14T18:34:43.701Z,11.55
2023-05-14T18:37:46.744Z,11.53
2023-05-14T18:40:50.003Z,11.54
2023-05-14T18:43:52.988Z,11.54
2023-05-14T18:46:56.495Z,11.52
2023-05-14T18:50:01.728Z,11.57
2023-05-14T18:53:07.611Z,11.58
2023-05-14T18:56:11.356Z,11.61
2023-05-14T18:59:15.094Z,11.67
2023-05-14T19:02:18.216Z,11.65
2023-05-14T19:05:21.866Z,11.57
2023-05-14T19:08:24.898Z,11.58
2023-05-14T19:11:28.185Z,11.64
2023-05-14T19:14:31.375Z,11.59
2023-05-14T19:17:34.737Z,11.63
2023-05-14T19:20:37.826Z,11.62
2023-05-14T19:23:41.474Z,11.64
2023-05-14T19:26:44.552Z,11.69
2023-05-14T19:29:47.910Z,11.70
2023-05-14T19:32:50.925Z,11.69
2023-05-14T19:35:54.238Z,11.63
2023-05-14T19:38:57.588Z,11.67
2023-05-14T19:42:00.922Z,11.72
2023-05-14T19:45:04.162Z,11.65
2023-05-14T19:48:08.273Z,11.65
2023-05-14T19:51:11.597Z,11.64
2023-05-14T19:54:15.020Z,11.65
2023-05-14T19:57:18.001Z,11.69
2023-05-14T20:00:22.402Z,11.71
2023-05-14T20:03:26.692Z,11.79
2023-05-14T20:06:29.811Z,11.79
2023-05-14T20:09:32.755Z,11.76
2023-05-14T20:12:35.481Z,11.77
2023-05-14T20:15:39.296Z,11.81
2023-05-14T20:18:41.869Z,11.82
2023-05-14T20:21:44.755Z,11.78
2023-05-14T20:24:47.235Z,11.81
2023-05-14T20:27:50.482Z,11.79
2023-05-14T20:30:54.757Z,11.82
2023-05-14T20:33:57.793Z,11.82
2023-05-14T20:37:01.304Z,11.83
2023-05-14T20:40:05.944Z,11.81
2023-05-14T20:43:08.641Z,11.81
2023-05-14T20:46:11.633Z,11.80
2023-05-14T20:49:14.215Z,11.84
2023-05-14T20:52:17.926Z,11.82
2023-05-14T20:55:21.691Z,11.81
2023-05-14T20:58:25.587Z,11.82
2023-05-14T21:01:28.188Z,11.82
2023-05-14T21:04:31.196Z,11.83
2023-05-14T21:07:33.852Z,11.79
2023-05-14T21:10:36.708Z,11.80
2023-05-14T21:13:39.352Z,11.80
2023-05-14T21:16:42.483Z,11.77
2023-05-14T21:19:45.120Z,11.79
2023-05-14T21:22:47.999Z,11.75
2023-05-14T21:25:51.083Z,11.73
2023-05-14T21:28:53.897Z,11.74
2023-05-14T21:31:56.520Z,11.78
2023-05-14T21:34:59.401Z,11.77
2023-05-14T21:38:02.039Z,11.77
2023-05-14T21:41:04.916Z,11.78
2023-05-14T21:44:09.849Z,11.79
2023-05-14T21:47:12.673Z,11.79
2023-05-14T21:50:15.269Z,11.78
2023-05-14T21:53:18.099Z,11.79
2023-05-14T21:56:21.142Z,11.84
2023-05-14T21:59:23.959Z,11.83
2023-05-14T22:02:26.671Z,11.77
2023-05-14T22:05:29.567Z,11.78
2023-05-14T22:08:32.286Z,11.81
2023-05-14T22:11:35.099Z,11.79
2023-05-14T22:14:37.765Z,11.80
2023-05-14T22:17:41.040Z,11.78
2023-05-14T22:20:44.191Z,11.80
2023-05-14T22:23:47.979Z,11.78
2023-05-14T22:26:50.720Z,11.76
2023-05-14T22:29:55.199Z,11.78
2023-05-14T22:32:57.780Z,11.82
2023-05-14T22:36:00.777Z,11.80
2023-05-14T22:39:03.375Z,11.80
2023-05-14T22:42:06.432Z,11.81
2023-05-14T22:45:09.459Z,11.82
2023-05-14T22:48:12.375Z,11.83
2023-05-14T22:51:16.331Z,11.85
2023-05-14T22:54:19.203Z,11.84
2023-05-14T22:57:21.905Z,11.85
2023-05-14T23:00:25.666Z,11.87
2023-05-14T23:03:28.360Z,11.86
2023-05-14T23:06:31.699Z,11.80
2023-05-14T23:09:34.263Z,11.84
2023-05-14T23:12:37.132Z,11.90
2023-05-14T23:15:43.057Z,11.85
2023-05-14T23:18:46.147Z,11.85
2023-05-14T23:21:48.905Z,11.86
2023-05-14T23:24:51.773Z,11.88
2023-05-14T23:27:54.432Z,11.85
2023-05-14T23:30:57.449Z,11.87
2023-05-14T23:34:00.149Z,11.85
2023-05-14T23:37:03.069Z,11.89
2023-05-14T23:40:07.255Z,11.87
2023-05-14T23:43:10.100Z,11.85
2023-05-14T23:46:13.094Z,11.84
2023-05-14T23:49:16.044Z,11.81
2023-05-14T23:52:18.633Z,11.84
2023-05-14T23:55:22.115Z,11.84
2023-05-14T23:58:25.324Z,11.85
